This is the latest recevied weather packets stored in our database for station/object eb1ayw-13. If no packets are shown the sender has not sent any weather packets the latest 10 day(s).
| Time | Temp. | Humidity | Pressure | Rain* | Wind** | Luminosity | Snow |
|---|---|---|---|---|---|---|---|
| 1777581057 | 50.56° C | 12% | 1005.2 hPa | - | - | - | - |
| 1777580456 | 50° C | 12% | 1005.3 hPa | - | - | - | - |
| 1777579856 | 49.44° C | 12% | 1005.3 hPa | - | - | - | - |
| 1777579256 | 50° C | 12% | 1005.1 hPa | - | - | - | - |
| 1777578656 | 48.89° C | 13% | 1005.3 hPa | - | - | - | - |
| 1777578057 | 47.22° C | 14% | 1005.7 hPa | - | - | - | - |
| 1777577456 | 46.67° C | 14% | 1005.7 hPa | - | - | - | - |
| 1777576857 | 46.67° C | 14% | 1005.6 hPa | - | - | - | - |
| 1777576257 | 46.67° C | 14% | 1005.5 hPa | - | - | - | - |
| 1777575657 | 51.11° C | 11% | 1004.2 hPa | - | - | - | - |
| 1777575057 | 48.33° C | 12% | 1004.9 hPa | - | - | - | - |
| 1777574457 | 51.67° C | 10% | 1003.9 hPa | - | - | - | - |
| 1777573856 | 49.44° C | 11% | 1004.4 hPa | - | - | - | - |
| 1777573256 | 47.22° C | 12% | 1004.8 hPa | - | - | - | - |
| 1777572657 | 50.56° C | 11% | 1004.1 hPa | - | - | - | - |
| 1777572057 | 48.33° C | 12% | 1004.5 hPa | - | - | - | - |
| 1777571456 | 48.89° C | 11% | 1004.5 hPa | - | - | - | - |
| 1777570856 | 48.33° C | 12% | 1004.5 hPa | - | - | - | - |
| 1777570256 | 47.22° C | 13% | 1004.9 hPa | - | - | - | - |
| 1777569657 | 46.67° C | 13% | 1005.2 hPa | - | - | - | - |
| 1777569057 | 45° C | 14% | 1005.6 hPa | - | - | - | - |
| 1777568457 | 49.44° C | 12% | 1004.5 hPa | - | - | - | - |
| 1777567856 | 47.22° C | 13% | 1004.9 hPa | - | - | - | - |
| 1777567257 | 49.44° C | 12% | 1004.4 hPa | - | - | - | - |
| 1777566656 | 46.11° C | 14% | 1005.2 hPa | - | - | - | - |
* Rain since midnight (hover to see other rain measurements)
** Current wind speed in m/s (hover to see current wind gust speed)